Time;durP1;ratioP1;P1;durP2;ratioP2;P2;SDS_P1;SDS_P2;PMS_P1;PMS_P2;Temp;Humidity;BMP_temperature;BMP_pressure;BME280_temperature;BME280_humidity;BME280_pressure;Samples;Min_cycle;Max_cycle;Signal;HPM_P1;HPM_P2
2021/07/23 00:00:54;;;;;;;10.70;4.35;;;17.20;85.60;;;;;;5014585;28;20026;-81
2021/07/23 00:03:20;;;;;;;5.95;3.95;;;17.20;85.90;;;;;;5013547;28;20029;-81
2021/07/23 00:05:46;;;;;;;6.38;4.20;;;17.20;86.10;;;;;;5002849;28;20018;-81
2021/07/23 00:08:11;;;;;;;5.50;4.50;;;17.20;86.60;;;;;;5013205;28;20038;-81
2021/07/23 00:10:37;;;;;;;5.03;3.97;;;17.10;87.00;;;;;;5012117;28;20034;-81
2021/07/23 00:13:02;;;;;;;8.38;4.78;;;17.10;87.10;;;;;;5013177;28;20034;-81
2021/07/23 00:15:28;;;;;;;7.28;4.53;;;17.10;88.00;;;;;;5013304;28;20048;-80
2021/07/23 00:17:53;;;;;;;5.22;4.10;;;17.00;87.30;;;;;;5013535;28;20021;-81
2021/07/23 00:20:19;;;;;;;8.68;3.55;;;17.00;87.50;;;;;;5012955;28;20030;-81
2021/07/23 00:22:45;;;;;;;4.93;3.28;;;17.00;87.80;;;;;;5013165;28;20105;-80
2021/07/23 00:25:11;;;;;;;5.25;3.20;;;17.00;87.90;;;;;;5013373;28;20038;-81
2021/07/23 00:27:36;;;;;;;7.68;3.30;;;17.00;87.80;;;;;;5013276;28;20026;-81
2021/07/23 00:30:03;;;;;;;6.55;3.20;;;17.00;87.80;;;;;;5011863;28;20121;-81
2021/07/23 00:32:29;;;;;;;7.32;2.90;;;16.90;88.00;;;;;;5027646;28;20448;-80
2021/07/23 00:34:54;;;;;;;13.80;3.58;;;16.80;87.40;;;;;;5013072;28;20030;-81
2021/07/23 00:37:20;;;;;;;6.03;3.08;;;16.80;87.90;;;;;;5012525;28;20116;-80
2021/07/23 00:39:45;;;;;;;5.45;3.70;;;16.80;87.90;;;;;;5012185;28;20096;-81
2021/07/23 00:42:11;;;;;;;5.70;3.35;;;16.70;88.20;;;;;;5012706;28;20030;-80
2021/07/23 00:44:38;;;;;;;11.38;3.08;;;16.80;88.10;;;;;;5013347;28;20029;-80
2021/07/23 00:47:03;;;;;;;7.10;3.70;;;16.70;88.30;;;;;;5010409;28;20026;-81
2021/07/23 00:49:29;;;;;;;7.00;3.72;;;16.70;88.50;;;;;;5011892;28;20034;-80
2021/07/23 00:51:54;;;;;;;3.55;2.55;;;16.70;88.60;;;;;;5012970;28;20079;-80
2021/07/23 00:54:20;;;;;;;9.15;3.67;;;16.70;88.90;;;;;;5013079;28;20042;-80
2021/07/23 00:56:45;;;;;;;6.65;3.95;;;16.60;88.60;;;;;;5012486;28;20801;-80
2021/07/23 00:59:11;;;;;;;6.72;2.80;;;16.60;88.70;;;;;;5010995;28;20087;-81
2021/07/23 01:01:37;;;;;;;5.97;3.50;;;16.60;88.90;;;;;;5011870;28;20029;-81
2021/07/23 01:04:03;;;;;;;4.03;3.20;;;16.50;88.80;;;;;;5009625;28;20104;-80
2021/07/23 01:06:30;;;;;;;6.85;3.35;;;16.50;89.20;;;;;;5012123;28;20030;-81
2021/07/23 01:08:55;;;;;;;5.00;3.55;;;16.50;89.40;;;;;;5047792;23;20037;-80
2021/07/23 01:11:25;;;;;;;5.00;3.80;;;16.50;89.70;;;;;;5009929;28;20030;-80
2021/07/23 01:13:51;;;;;;;5.70;3.08;;;16.40;89.90;;;;;;5009695;28;20595;-80
2021/07/23 01:16:16;;;;;;;4.47;3.40;;;16.40;90.00;;;;;;5010201;28;20174;-80
2021/07/23 01:18:42;;;;;;;8.35;4.05;;;16.30;89.80;;;;;;5010059;28;20025;-80
2021/07/23 01:21:09;;;;;;;7.97;3.75;;;16.30;89.90;;;;;;5009829;28;20034;-80
2021/07/23 01:23:35;;;;;;;6.85;3.17;;;16.30;90.00;;;;;;5010019;28;20077;-80
2021/07/23 01:26:03;;;;;;;5.93;2.90;;;16.30;90.00;;;;;;5008774;28;20091;-80
2021/07/23 01:28:30;;;;;;;6.47;2.85;;;16.20;90.00;;;;;;5007537;28;20049;-80
2021/07/23 01:30:58;;;;;;;7.75;3.35;;;16.20;89.80;;;;;;5009787;28;20444;-80
2021/07/23 01:33:24;;;;;;;5.15;3.03;;;16.10;89.80;;;;;;5009576;28;20441;-80
2021/07/23 01:35:49;;;;;;;4.25;2.75;;;16.10;90.10;;;;;;5010042;28;20057;-79
2021/07/23 01:38:17;;;;;;;3.38;3.08;;;16.00;90.00;;;;;;5008612;28;20022;-80
2021/07/23 01:40:46;;;;;;;5.97;3.05;;;16.00;90.20;;;;;;5000267;28;20038;-80
2021/07/23 01:43:13;;;;;;;6.45;3.00;;;16.00;90.30;;;;;;5009471;28;20088;-80
2021/07/23 01:45:39;;;;;;;4.47;3.25;;;16.00;90.20;;;;;;5008037;28;20472;-80
2021/07/23 01:48:05;;;;;;;4.78;2.65;;;16.00;90.30;;;;;;5009222;28;20034;-80
2021/07/23 01:50:30;;;;;;;4.22;2.60;;;15.90;90.30;;;;;;5009441;28;20034;-80
2021/07/23 01:52:56;;;;;;;6.55;3.05;;;15.90;90.30;;;;;;5009711;28;20116;-80
2021/07/23 01:55:21;;;;;;;7.70;3.03;;;15.90;90.50;;;;;;5009192;28;20025;-80
2021/07/23 01:57:47;;;;;;;4.70;3.00;;;15.90;90.50;;;;;;5009495;28;20032;-80
2021/07/23 02:00:13;;;;;;;8.02;3.22;;;15.90;90.50;;;;;;5023756;28;20499;-80
2021/07/23 02:02:38;;;;;;;7.90;4.00;;;15.90;90.50;;;;;;5008251;28;20105;-80
2021/07/23 02:05:04;;;;;;;4.85;2.65;;;15.90;90.50;;;;;;5009299;28;20033;-80
2021/07/23 02:07:30;;;;;;;6.95;2.88;;;15.90;90.60;;;;;;5009494;28;20034;-80
2021/07/23 02:09:55;;;;;;;7.00;3.40;;;15.90;90.60;;;;;;5008057;28;20507;-80
2021/07/23 02:12:21;;;;;;;5.75;3.42;;;15.90;90.70;;;;;;5009490;28;20040;-80
2021/07/23 02:14:46;;;;;;;6.00;3.50;;;16.00;90.70;;;;;;5009497;28;20018;-80
2021/07/23 02:17:13;;;;;;;4.80;3.75;;;16.00;90.70;;;;;;5009483;28;20041;-80
2021/07/23 02:19:39;;;;;;;5.50;3.10;;;15.90;90.80;;;;;;5006380;28;20026;-80
2021/07/23 02:22:05;;;;;;;7.10;3.15;;;15.90;90.80;;;;;;5008561;28;20041;-80
2021/07/23 02:24:31;;;;;;;11.05;3.40;;;15.90;90.80;;;;;;5016296;28;20117;-80
2021/07/23 02:26:56;;;;;;;4.90;3.50;;;15.90;91.00;;;;;;5015600;28;20101;-80
2021/07/23 02:29:22;;;;;;;3.97;3.10;;;15.80;90.90;;;;;;5015493;28;20036;-80
2021/07/23 02:31:47;;;;;;;5.80;3.55;;;15.80;90.90;;;;;;5005685;28;20055;-80
2021/07/23 02:34:13;;;;;;;5.70;3.42;;;15.80;91.00;;;;;;5015870;28;20026;-80
2021/07/23 02:36:38;;;;;;;4.70;2.90;;;15.80;91.00;;;;;;5014273;28;20053;-80
2021/07/23 02:39:04;;;;;;;13.52;3.53;;;15.80;91.00;;;;;;5015264;28;20038;-79
2021/07/23 02:41:30;;;;;;;9.30;4.10;;;15.70;91.20;;;;;;5013845;28;20033;-79
2021/07/23 02:43:55;;;;;;;10.32;3.25;;;15.70;91.10;;;;;;5015487;28;20411;-80
2021/07/23 02:46:21;;;;;;;8.00;3.28;;;15.70;91.10;;;;;;5006692;28;20527;-80
2021/07/23 02:48:46;;;;;;;4.85;3.78;;;15.70;91.20;;;;;;5014935;28;20109;-80
2021/07/23 02:51:12;;;;;;;7.43;4.28;;;15.70;91.20;;;;;;5014432;28;20038;-79
2021/07/23 02:53:37;;;;;;;5.47;3.20;;;15.60;91.30;;;;;;5015293;28;20022;-80
2021/07/23 02:56:03;;;;;;;7.82;2.90;;;15.70;91.30;;;;;;5015348;28;20026;-80
2021/07/23 02:58:29;;;;;;;5.03;3.13;;;15.60;91.40;;;;;;5014599;28;20037;-79
2021/07/23 03:00:54;;;;;;;7.63;3.88;;;15.60;91.50;;;;;;5013767;28;20026;-79
2021/07/23 03:03:19;;;;;;;6.93;3.45;;;15.50;91.60;;;;;;5014198;28;20030;-80
2021/07/23 03:05:45;;;;;;;9.10;3.30;;;15.50;91.70;;;;;;5015139;28;20302;-79
2021/07/23 03:08:10;;;;;;;8.00;3.80;;;15.50;91.80;;;;;;5013127;28;20326;-79
2021/07/23 03:10:36;;;;;;;5.28;3.15;;;15.50;92.20;;;;;;5013572;28;20033;-79
2021/07/23 03:13:02;;;;;;;6.40;3.30;;;15.40;92.00;;;;;;5015238;28;20026;-79
2021/07/23 03:15:27;;;;;;;5.03;3.92;;;15.40;92.00;;;;;;5013997;28;20028;-79
2021/07/23 03:17:52;;;;;;;7.07;3.38;;;15.30;92.10;;;;;;5013581;28;20360;-79
2021/07/23 03:20:18;;;;;;;7.88;4.20;;;15.30;92.30;;;;;;5014590;28;20029;-79
2021/07/23 03:22:44;;;;;;;6.60;3.63;;;15.30;92.30;;;;;;5015044;28;20029;-79
2021/07/23 03:25:10;;;;;;;7.10;3.60;;;15.30;92.40;;;;;;5015231;28;20028;-80
2021/07/23 03:27:36;;;;;;;7.18;4.05;;;15.20;92.30;;;;;;5014148;28;20022;-79
2021/07/23 03:30:03;;;;;;;8.18;3.38;;;15.10;92.40;;;;;;5014932;28;20088;-79
2021/07/23 03:32:28;;;;;;;11.52;4.40;;;15.10;92.60;;;;;;5021598;28;20037;-79
2021/07/23 03:34:54;;;;;;;7.03;3.35;;;15.00;92.60;;;;;;5012779;28;20030;-79
2021/07/23 03:37:20;;;;;;;6.90;3.50;;;15.00;92.80;;;;;;5011171;28;20041;-79
2021/07/23 03:39:45;;;;;;;3.95;3.35;;;14.90;92.80;;;;;;5011026;28;20034;-79
2021/07/23 03:42:10;;;;;;;9.43;4.40;;;14.90;92.90;;;;;;5012146;28;20041;-80
2021/07/23 03:44:36;;;;;;;6.00;4.18;;;14.90;93.00;;;;;;5010599;28;20034;-80
2021/07/23 03:47:02;;;;;;;3.80;3.10;;;14.90;92.90;;;;;;5010392;28;20037;-80
2021/07/23 03:49:27;;;;;;;;;;;14.90;92.90;;;;;;5011667;28;20167;-80
2021/07/23 03:51:55;;;;;;;10.88;3.55;;;14.90;93.00;;;;;;5011582;28;20426;-79
2021/07/23 03:54:20;;;;;;;8.30;3.50;;;14.90;93.00;;;;;;5011906;28;20034;-79
2021/07/23 03:56:45;;;;;;;6.22;3.72;;;14.90;93.00;;;;;;5011404;28;20133;-79
2021/07/23 03:59:11;;;;;;;14.43;4.43;;;14.80;93.00;;;;;;5011828;28;20037;-79
2021/07/23 04:01:39;;;;;;;5.03;3.85;;;14.80;93.20;;;;;;5009456;28;20038;-79
2021/07/23 04:04:04;;;;;;;7.28;3.58;;;14.80;93.20;;;;;;5025910;28;20196;-79
2021/07/23 04:06:30;;;;;;;7.20;4.35;;;14.70;93.20;;;;;;5012012;28;20100;-80
2021/07/23 04:08:55;;;;;;;7.35;4.03;;;14.80;93.30;;;;;;5007835;28;20041;-79
2021/07/23 04:11:33;;;;;;;5.88;4.13;;;14.70;93.40;;;;;;5011668;28;20026;-80
2021/07/23 04:13:59;;;;;;;7.25;5.53;;;14.80;93.30;;;;;;5011034;28;20093;-70
2021/07/23 04:16:24;;;;;;;8.60;4.40;;;15.10;93.80;;;;;;5011369;28;20489;-70
2021/07/23 04:18:51;;;;;;;5.80;4.22;;;15.50;93.30;;;;;;5006469;28;20029;-70
2021/07/23 04:21:16;;;;;;;4.60;3.60;;;15.80;92.80;;;;;;5009808;28;20046;-70
2021/07/23 04:23:42;;;;;;;7.70;4.10;;;16.00;92.50;;;;;;5008050;28;20151;-71
2021/07/23 04:26:09;;;;;;;9.63;5.13;;;16.30;92.40;;;;;;5005391;28;20041;-71
2021/07/23 04:28:34;;;;;;;5.40;3.60;;;16.50;92.00;;;;;;5007424;28;20066;-71
2021/07/23 04:31:00;;;;;;;7.28;3.92;;;16.70;91.50;;;;;;5009340;28;20074;-71
2021/07/23 04:33:26;;;;;;;4.05;3.65;;;16.80;91.40;;;;;;5009462;28;20033;-71
2021/07/23 04:35:51;;;;;;;5.85;3.95;;;16.90;90.90;;;;;;5006726;28;20030;-71
2021/07/23 04:38:17;;;;;;;5.28;4.18;;;16.80;90.70;;;;;;5007835;28;20113;-71
2021/07/23 04:40:42;;;;;;;6.07;4.45;;;16.80;90.70;;;;;;5007463;28;20583;-70
2021/07/23 04:43:07;;;;;;;12.70;7.05;;;16.90;90.70;;;;;;5007348;28;20359;-70
2021/07/23 04:45:33;;;;;;;8.50;5.07;;;17.00;90.70;;;;;;5010263;28;20029;-71
2021/07/23 04:47:58;;;;;;;13.98;9.07;;;17.10;90.50;;;;;;5008297;28;20431;-71
2021/07/23 04:50:24;;;;;;;6.82;5.25;;;17.20;90.30;;;;;;5005730;28;20229;-71
2021/07/23 04:52:55;;;;;;;8.23;4.88;;;17.30;90.00;;;;;;5010178;28;20021;-70
2021/07/23 04:55:21;;;;;;;9.27;4.65;;;17.40;89.70;;;;;;5010182;28;20041;-70
2021/07/23 04:57:47;;;;;;;5.75;3.15;;;17.40;88.90;;;;;;5007951;28;20049;-72
2021/07/23 05:00:13;;;;;;;4.65;3.78;;;17.20;88.40;;;;;;5004345;28;20030;-75
2021/07/23 05:02:41;;;;;;;12.75;4.72;;;17.20;88.70;;;;;;5007076;28;20022;-74
2021/07/23 05:05:13;;;;;;;9.52;4.75;;;17.50;88.90;;;;;;5008405;28;20088;-75
2021/07/23 05:07:40;;;;;;;9.77;4.38;;;17.90;88.70;;;;;;5008816;28;20018;-74
2021/07/23 05:10:06;;;;;;;9.25;4.45;;;18.60;86.80;;;;;;5006960;28;20515;-74
2021/07/23 05:12:32;;;;;;;6.25;4.05;;;19.00;86.10;;;;;;5007141;28;20030;-75
2021/07/23 05:14:57;;;;;;;6.82;3.65;;;19.40;85.20;;;;;;5008924;28;20029;-74
2021/07/23 05:17:24;;;;;;;10.60;3.97;;;19.90;83.40;;;;;;5007073;28;20033;-74
2021/07/23 05:19:49;;;;;;;7.30;4.90;;;20.30;81.90;;;;;;5007912;28;20515;-75
2021/07/23 05:22:15;;;;;;;6.00;4.60;;;20.70;80.90;;;;;;5007222;28;20034;-74
2021/07/23 05:24:41;;;;;;;5.72;3.33;;;21.00;79.90;;;;;;5009176;28;20076;-74
2021/07/23 05:27:06;;;;;;;7.38;3.30;;;21.30;78.40;;;;;;5008784;28;20771;-75
2021/07/23 05:29:31;;;;;;;4.25;3.22;;;21.50;76.60;;;;;;5008578;28;20404;-75
2021/07/23 05:31:57;;;;;;;10.30;3.63;;;21.60;76.10;;;;;;5009736;28;20065;-75
2021/07/23 05:34:22;;;;;;;5.32;3.67;;;21.80;75.70;;;;;;5010237;28;20037;-75
2021/07/23 05:36:48;;;;;;;7.10;5.45;;;21.90;73.50;;;;;;5006114;28;20042;-74
2021/07/23 05:39:14;;;;;;;6.95;3.65;;;22.00;74.10;;;;;;5006462;28;20400;-74
2021/07/23 05:41:39;;;;;;;5.10;3.38;;;22.20;74.70;;;;;;5007078;28;20118;-74
2021/07/23 05:44:05;;;;;;;8.85;4.05;;;22.40;72.50;;;;;;5008814;28;20045;-74
2021/07/23 05:46:32;;;;;;;18.55;5.43;;;22.30;72.30;;;;;;5007498;28;20041;-75
2021/07/23 05:48:58;;;;;;;7.07;3.88;;;22.20;70.50;;;;;;5000619;28;20022;-74
2021/07/23 05:51:23;;;;;;;6.03;4.63;;;21.80;72.00;;;;;;5002882;28;20041;-75
2021/07/23 05:53:49;;;;;;;11.43;3.20;;;21.60;72.40;;;;;;5005590;28;20026;-75
2021/07/23 05:56:15;;;;;;;9.27;4.25;;;21.30;72.30;;;;;;5008051;28;20026;-77
2021/07/23 05:58:40;;;;;;;12.27;4.43;;;21.00;73.10;;;;;;5014453;28;20034;-76
2021/07/23 06:01:06;;;;;;;7.70;3.25;;;20.70;73.60;;;;;;5005748;28;20044;-74
2021/07/23 06:03:33;;;;;;;9.23;3.50;;;20.50;73.50;;;;;;5009733;28;20017;-75
2021/07/23 06:06:01;;;;;;;6.05;3.17;;;20.40;74.10;;;;;;5007354;28;20022;-74
2021/07/23 06:08:26;;;;;;;11.07;3.95;;;20.30;73.80;;;;;;5005673;28;20433;-75
2021/07/23 06:10:52;;;;;;;4.68;3.25;;;20.10;74.10;;;;;;5007472;28;20030;-76
2021/07/23 06:13:17;;;;;;;5.15;3.28;;;19.90;74.70;;;;;;5009501;28;20030;-70
2021/07/23 06:15:43;;;;;;;9.90;2.70;;;19.80;75.10;;;;;;5008351;28;20030;-71
2021/07/23 06:18:08;;;;;;;7.05;3.28;;;19.60;75.50;;;;;;5007851;28;20065;-70
2021/07/23 06:20:34;;;;;;;8.27;3.47;;;19.60;75.70;;;;;;5008965;28;20068;-72
2021/07/23 06:22:59;;;;;;;4.43;3.15;;;19.50;75.90;;;;;;5007292;28;20030;-72
2021/07/23 06:25:25;;;;;;;6.07;2.28;;;19.60;76.10;;;;;;5005498;28;20593;-72
2021/07/23 06:27:51;;;;;;;4.53;2.47;;;19.70;75.80;;;;;;5008237;28;20096;-72
2021/07/23 06:30:17;;;;;;;5.45;2.92;;;19.70;75.80;;;;;;5007034;28;20477;-72
2021/07/23 06:32:43;;;;;;;6.57;3.25;;;19.90;75.60;;;;;;5008420;28;20412;-72
2021/07/23 06:35:09;;;;;;;9.00;5.78;;;19.90;75.10;;;;;;5008604;28;20030;-71
2021/07/23 06:37:34;;;;;;;8.05;2.97;;;19.80;75.30;;;;;;5009874;28;20068;-71
2021/07/23 06:40:00;;;;;;;6.55;2.70;;;19.80;75.70;;;;;;5004954;28;20042;-72
2021/07/23 06:42:25;;;;;;;5.28;2.63;;;19.80;75.60;;;;;;5008932;28;20485;-72
2021/07/23 06:44:51;;;;;;;6.47;2.83;;;19.80;75.40;;;;;;5006302;28;20030;-71
2021/07/23 06:47:18;;;;;;;6.15;3.42;;;19.80;75.30;;;;;;5008509;28;20057;-72
2021/07/23 06:49:44;;;;;;;5.50;3.33;;;19.90;75.60;;;;;;5006388;28;20400;-70
2021/07/23 06:52:09;;;;;;;12.93;3.03;;;20.10;75.90;;;;;;5005190;28;21453;-71
2021/07/23 06:54:35;;;;;;;5.28;2.03;;;20.30;76.00;;;;;;5001438;28;20041;-72
2021/07/23 06:57:04;;;;;;;3.92;3.10;;;20.50;75.00;;;;;;5006714;28;20041;-71
2021/07/23 06:59:31;;;;;;;3.70;2.35;;;20.40;74.90;;;;;;5004953;28;20111;-71
2021/07/23 07:01:58;;;;;;;10.98;3.50;;;20.40;74.50;;;;;;5006936;28;20298;-73
2021/07/23 07:04:24;;;;;;;8.77;2.83;;;20.40;74.50;;;;;;5008260;28;20061;-73
2021/07/23 07:06:49;;;;;;;7.35;1.60;;;20.30;74.20;;;;;;5004285;28;20049;-73
2021/07/23 07:09:15;;;;;;;8.02;1.73;;;20.10;74.10;;;;;;5027316;23;20347;-74
2021/07/23 07:11:40;;;;;;;8.02;2.80;;;19.90;74.70;;;;;;5001742;28;20334;-72
2021/07/23 07:14:06;;;;;;;4.00;1.92;;;19.70;75.20;;;;;;5001843;28;20030;-72
2021/07/23 07:16:31;;;;;;;7.30;2.15;;;19.70;75.40;;;;;;5002966;28;20045;-71
2021/07/23 07:18:57;;;;;;;3.53;2.28;;;19.70;75.80;;;;;;5002201;28;20117;-71
2021/07/23 07:21:22;;;;;;;3.95;2.38;;;19.80;75.90;;;;;;5003313;28;20089;-70
2021/07/23 07:23:48;;;;;;;7.60;2.42;;;19.80;76.30;;;;;;5000456;28;20030;-72
2021/07/23 07:26:13;;;;;;;4.53;2.58;;;19.90;75.60;;;;;;5001632;28;20242;-72
2021/07/23 07:28:39;;;;;;;4.18;2.50;;;19.90;75.90;;;;;;5002198;28;20337;-71
2021/07/23 07:31:04;;;;;;;8.77;2.47;;;19.90;75.80;;;;;;4985133;28;20030;-72
2021/07/23 07:33:30;;;;;;;6.25;3.00;;;20.20;75.80;;;;;;5003543;28;20074;-72
2021/07/23 07:35:56;;;;;;;7.82;3.45;;;20.40;75.60;;;;;;4985166;28;20064;-72
2021/07/23 07:38:21;;;;;;;8.07;2.97;;;20.50;74.80;;;;;;4985596;28;20532;-72
2021/07/23 07:40:47;;;;;;;5.53;3.05;;;20.70;73.90;;;;;;5000532;28;20026;-71
2021/07/23 07:43:13;;;;;;;5.60;2.67;;;20.70;73.80;;;;;;4983344;28;20484;-70
2021/07/23 07:45:38;;;;;;;2.45;2.10;;;20.50;73.30;;;;;;5001424;28;20270;-72
2021/07/23 07:48:04;;;;;;;5.70;1.95;;;20.20;73.60;;;;;;5000841;28;20026;-71
2021/07/23 07:50:30;;;;;;;7.20;4.50;;;20.00;74.50;;;;;;4991979;28;20034;-71
2021/07/23 07:52:56;;;;;;;8.73;5.10;;;20.30;74.90;;;;;;5002222;28;20026;-71
2021/07/23 07:55:21;;;;;;;3.63;2.28;;;20.50;73.80;;;;;;5002377;28;20524;-72
2021/07/23 07:57:47;;;;;;;6.80;3.13;;;20.50;73.20;;;;;;5001905;28;20042;-72
2021/07/23 08:00:12;;;;;;;5.32;2.63;;;20.50;73.70;;;;;;5002716;28;20069;-70
2021/07/23 08:02:38;;;;;;;5.53;2.38;;;20.40;73.50;;;;;;4982474;28;20029;-71
2021/07/23 08:05:04;;;;;;;5.85;3.33;;;20.30;73.40;;;;;;5002010;28;20175;-73
2021/07/23 08:07:32;;;;;;;4.18;2.83;;;20.30;74.00;;;;;;5003006;28;20034;-72
2021/07/23 08:10:02;;;;;;;5.32;2.00;;;20.50;74.00;;;;;;5001471;28;20030;-73
2021/07/23 08:12:30;;;;;;;3.25;2.22;;;20.60;73.40;;;;;;5002676;28;20072;-77
2021/07/23 08:14:56;;;;;;;8.27;2.40;;;20.70;73.30;;;;;;4986077;28;20440;-71
2021/07/23 08:17:22;;;;;;;10.45;2.72;;;20.70;72.60;;;;;;5001471;28;20038;-71
2021/07/23 08:19:48;;;;;;;2.83;1.52;;;20.80;73.20;;;;;;5001004;28;20029;-72
2021/07/23 08:22:14;;;;;;;4.50;2.72;;;21.00;72.40;;;;;;5002608;28;20049;-73
2021/07/23 08:24:40;;;;;;;7.28;2.85;;;21.00;72.10;;;;;;5003719;28;20109;-71
2021/07/23 08:27:05;;;;;;;5.30;2.00;;;21.00;71.80;;;;;;5001891;28;20033;-72
2021/07/23 08:29:31;;;;;;;6.57;2.55;;;21.00;72.10;;;;;;5002079;28;20414;-72
2021/07/23 08:32:10;;;;;;;7.60;2.25;;;21.00;72.10;;;;;;5003121;28;20034;-74
2021/07/23 08:34:35;;;;;;;5.55;2.67;;;21.00;72.10;;;;;;5001639;28;20037;-72
2021/07/23 08:37:01;;;;;;;4.85;2.63;;;21.00;71.70;;;;;;5001608;28;20041;-71
2021/07/23 08:39:27;;;;;;;3.20;1.85;;;20.90;72.00;;;;;;5001699;28;20026;-71
2021/07/23 08:41:52;;;;;;;3.72;2.00;;;20.80;72.00;;;;;;5001284;28;20436;-72
2021/07/23 08:44:18;;;;;;;3.53;1.67;;;20.80;72.40;;;;;;5001556;28;20435;-71
2021/07/23 08:46:43;;;;;;;9.93;2.63;;;21.00;72.50;;;;;;5001944;28;20080;-72
2021/07/23 08:49:09;;;;;;;4.63;3.25;;;21.10;71.50;;;;;;4982649;28;20026;-72
2021/07/23 08:51:34;;;;;;;4.78;2.05;;;21.10;71.90;;;;;;4983894;28;20030;-71
2021/07/23 08:54:00;;;;;;;4.82;2.17;;;21.30;71.90;;;;;;5000603;28;20035;-71
2021/07/23 08:56:26;;;;;;;6.45;2.58;;;21.40;71.20;;;;;;5002786;28;20087;-73
2021/07/23 08:58:52;;;;;;;3.22;1.75;;;21.50;71.60;;;;;;5001966;28;21228;-74
2021/07/23 09:01:17;;;;;;;5.05;2.70;;;21.60;70.50;;;;;;4983590;28;20388;-74
2021/07/23 09:03:43;;;;;;;5.00;2.60;;;21.60;70.10;;;;;;5002898;28;20023;-73
2021/07/23 09:06:16;;;;;;;4.50;2.60;;;21.40;69.40;;;;;;5002441;28;20110;-73
2021/07/23 09:08:53;;;;;;;4.80;2.28;;;21.20;69.90;;;;;;4999612;28;20464;-74
2021/07/23 09:11:40;;;;;;;5.53;3.25;;;21.20;70.70;;;;;;5002262;28;20026;-74
2021/07/23 09:14:10;;;;;;;3.60;2.63;;;21.40;70.00;;;;;;4980968;28;20048;-70
2021/07/23 09:16:36;;;;;;;6.97;2.60;;;21.40;68.80;;;;;;5002279;28;20026;-72
2021/07/23 09:19:06;;;;;;;5.13;2.42;;;21.30;69.40;;;;;;5000243;28;20448;-72
2021/07/23 09:21:39;;;;;;;4.57;2.95;;;21.10;69.40;;;;;;4983721;28;20142;-73
2021/07/23 09:24:09;;;;;;;4.55;2.35;;;21.10;69.70;;;;;;4999225;28;20026;-72
2021/07/23 09:26:45;;;;;;;6.25;2.75;;;21.30;70.50;;;;;;5000984;28;20588;-73
2021/07/23 09:29:12;;;;;;;6.53;2.15;;;21.60;70.00;;;;;;5000167;28;20022;-69
2021/07/23 09:31:38;;;;;;;7.10;2.63;;;21.80;69.50;;;;;;4983570;28;20030;-69
2021/07/23 09:34:04;;;;;;;3.30;2.95;;;21.80;70.00;;;;;;4997645;28;20041;-69
2021/07/23 09:36:31;;;;;;;6.57;2.15;;;22.10;70.60;;;;;;4987550;28;20112;-68
2021/07/23 09:39:05;;;;;;;5.13;2.42;;;22.40;70.70;;;;;;4996639;28;20759;-69
2021/07/23 09:41:30;;;;;;;4.53;3.15;;;22.40;66.10;;;;;;4981810;28;20072;-71
2021/07/23 09:43:57;;;;;;;5.97;2.67;;;22.10;67.10;;;;;;4983040;28;20041;-69
2021/07/23 09:46:25;;;;;;;7.55;3.67;;;21.80;67.50;;;;;;4999310;28;20030;-68
2021/07/23 09:48:55;;;;;;;6.75;3.03;;;21.80;68.80;;;;;;5000215;28;20122;-68
2021/07/23 09:51:22;;;;;;;3.40;1.90;;;21.70;67.50;;;;;;4999932;28;20025;-69
2021/07/23 09:53:48;;;;;;;4.47;2.45;;;21.70;68.70;;;;;;4999260;28;20036;-69
2021/07/23 09:56:16;;;;;;;4.72;3.13;;;21.80;67.60;;;;;;4999890;28;20033;-68
2021/07/23 09:58:52;;;;;;;4.45;1.90;;;21.60;67.80;;;;;;4999678;28;20029;-67
2021/07/23 10:01:29;;;;;;;2.25;2.05;;;21.70;69.30;;;;;;5000104;28;20420;-68
2021/07/23 10:04:00;;;;;;;6.25;2.13;;;22.00;67.60;;;;;;4999536;28;20077;-68
2021/07/23 10:06:33;;;;;;;4.10;1.92;;;22.10;67.10;;;;;;5000743;28;20069;-68
2021/07/23 10:09:10;;;;;;;5.03;1.80;;;21.90;66.90;;;;;;4998592;28;20503;-69
2021/07/23 10:11:39;;;;;;;6.80;2.33;;;22.00;67.80;;;;;;4988638;28;20045;-68
2021/07/23 10:14:09;;;;;;;3.40;2.40;;;22.30;67.80;;;;;;4998088;28;20113;-68
2021/07/23 10:16:36;;;;;;;5.72;2.42;;;22.40;66.70;;;;;;5001322;28;20501;-68
2021/07/23 10:19:05;;;;;;;9.07;2.47;;;22.40;65.80;;;;;;4988789;28;20208;-68
2021/07/23 10:21:30;;;;;;;7.18;2.63;;;22.30;66.10;;;;;;4999420;28;20127;-68
2021/07/23 10:23:56;;;;;;;4.85;2.67;;;22.40;66.40;;;;;;4999026;28;20062;-68
2021/07/23 10:26:29;;;;;;;5.40;1.80;;;22.40;66.10;;;;;;4982862;28;20041;-68
2021/07/23 10:28:57;;;;;;;2.88;2.22;;;22.40;65.20;;;;;;4982427;28;20022;-68
2021/07/23 10:31:27;;;;;;;5.38;1.65;;;22.20;65.30;;;;;;5001141;28;20173;-68
2021/07/23 10:33:56;;;;;;;2.40;1.60;;;22.20;65.80;;;;;;4999891;28;20033;-68
2021/07/23 10:36:31;;;;;;;2.05;1.65;;;22.40;66.40;;;;;;5000039;28;20041;-69
2021/07/23 10:39:06;;;;;;;2.28;1.85;;;22.70;64.90;;;;;;5000999;28;20481;-69
2021/07/23 10:42:02;;;;;;;3.05;1.55;;;22.60;62.60;;;;;;4983322;28;20313;-70
2021/07/23 10:44:27;;;;;;;2.35;1.85;;;22.40;63.10;;;;;;4988381;28;20030;-68
2021/07/23 10:46:53;;;;;;;3.83;1.98;;;22.40;64.10;;;;;;5001098;28;20080;-70
2021/07/23 10:49:27;;;;;;;4.28;1.90;;;22.50;64.70;;;;;;5003556;28;20072;-69
2021/07/23 10:51:54;;;;;;;6.57;2.05;;;22.80;64.90;;;;;;5003570;28;20092;-69
2021/07/23 10:54:21;;;;;;;2.30;2.10;;;23.10;63.70;;;;;;5003695;28;20030;-69
2021/07/23 10:56:56;;;;;;;3.95;1.50;;;23.40;62.20;;;;;;5000511;28;20113;-69
2021/07/23 10:59:47;;;;;;;4.55;2.30;;;23.40;61.20;;;;;;5001793;28;20054;-68
2021/07/23 11:02:15;;;;;;;4.60;1.45;;;23.20;62.40;;;;;;5001868;28;20109;-68
2021/07/23 11:04:42;;;;;;;5.72;1.52;;;23.20;62.00;;;;;;5003518;28;20026;-68
2021/07/23 11:07:09;;;;;;;3.60;1.48;;;23.50;62.00;;;;;;5002822;28;20101;-68
2021/07/23 11:09:36;;;;;;;5.35;2.20;;;23.50;60.40;;;;;;5003237;28;20035;-69
2021/07/23 11:12:14;;;;;;;4.35;2.25;;;23.20;60.30;;;;;;5002809;28;20034;-70
2021/07/23 11:14:39;;;;;;;3.33;1.73;;;23.00;60.20;;;;;;5002603;28;20025;-70
2021/07/23 11:17:05;;;;;;;5.25;1.38;;;22.70;61.30;;;;;;5002392;28;20038;-68
2021/07/23 11:19:30;;;;;;;2.97;1.38;;;22.70;62.10;;;;;;4985841;28;20026;-68
2021/07/23 11:21:56;;;;;;;2.58;1.48;;;22.90;62.20;;;;;;4993045;28;20097;-69
2021/07/23 11:24:21;;;;;;;4.25;2.28;;;23.00;62.20;;;;;;5003417;28;20085;-69
2021/07/23 11:26:52;;;;;;;1.55;1.27;;;23.10;61.20;;;;;;5003014;28;20080;-68
2021/07/23 11:29:39;;;;;;;2.03;1.55;;;23.20;61.00;;;;;;5002355;28;20025;-68
2021/07/23 11:32:08;;;;;;;;;;;23.30;61.60;;;;;;5002729;28;20033;-69
2021/07/23 11:34:39;;;;;;;4.10;2.33;;;23.40;60.80;;;;;;5000739;28;20685;-68
2021/07/23 11:37:15;;;;;;;3.65;2.17;;;23.70;62.70;;;;;;4985574;28;20033;-68
2021/07/23 11:39:58;;;;;;;6.38;2.17;;;23.90;60.90;;;;;;5006541;28;20549;-76
2021/07/23 11:42:28;;;;;;;5.63;1.98;;;24.00;59.20;;;;;;4995771;28;20061;-76
2021/07/23 11:44:55;;;;;;;4.80;2.92;;;23.90;59.30;;;;;;5002764;28;20026;-75
2021/07/23 11:47:38;;;;;;;2.70;1.52;;;23.60;59.10;;;;;;4989672;28;20430;-77
2021/07/23 11:50:11;;;;;;;5.15;2.00;;;23.50;60.70;;;;;;4991982;28;20045;-78
2021/07/23 11:52:37;;;;;;;3.72;2.17;;;23.50;60.70;;;;;;4988308;28;20034;-78
2021/07/23 11:55:10;;;;;;;8.10;3.65;;;23.40;59.90;;;;;;5003714;28;20409;-77
2021/07/23 11:57:47;;;;;;;4.47;2.10;;;23.50;60.20;;;;;;5004886;28;20033;-78
2021/07/23 12:00:22;;;;;;;5.50;3.10;;;23.50;60.00;;;;;;5006436;28;20421;-77
2021/07/23 12:02:50;;;;;;;5.07;2.05;;;23.50;60.80;;;;;;4989376;28;20030;-78
2021/07/23 12:05:17;;;;;;;17.38;10.13;;;23.30;60.40;;;;;;5005005;28;20049;-77
2021/07/23 12:07:45;;;;;;;4.22;3.20;;;23.10;61.10;;;;;;5001410;28;20030;-77
2021/07/23 12:10:16;;;;;;;5.63;4.13;;;23.10;61.10;;;;;;5002997;28;20124;-75
2021/07/23 12:12:42;;;;;;;7.15;2.38;;;23.00;61.30;;;;;;5003588;28;20043;-75
2021/07/23 12:15:10;;;;;;;2.70;2.15;;;23.20;61.00;;;;;;4987522;28;20578;-78
2021/07/23 12:17:37;;;;;;;2.50;1.95;;;23.10;61.20;;;;;;5009175;28;20040;-79
2021/07/23 12:20:08;;;;;;;4.85;3.28;;;23.10;60.70;;;;;;5002956;28;20409;-78
2021/07/23 12:22:34;;;;;;;2.08;1.63;;;23.00;61.20;;;;;;5001293;28;20389;-76
2021/07/23 12:25:21;;;;;;;3.85;2.50;;;23.10;61.20;;;;;;5004099;28;20027;-75
2021/07/23 12:28:12;;;;;;;10.85;8.43;;;23.10;61.30;;;;;;5001837;28;20497;-75
2021/07/23 12:30:38;;;;;;;4.32;3.33;;;23.30;61.60;;;;;;4988356;28;20057;-77
2021/07/23 12:33:25;;;;;;;2.72;2.00;;;23.60;61.40;;;;;;5005847;28;20774;-78
2021/07/23 12:35:57;;;;;;;8.60;2.88;;;23.80;60.90;;;;;;5009203;28;20109;-75
2021/07/23 12:38:26;;;;;;;3.83;1.38;;;23.70;60.20;;;;;;4989692;28;20149;-74
2021/07/23 12:40:54;;;;;;;4.07;1.73;;;23.50;60.50;;;;;;4999744;28;20398;-75
2021/07/23 12:43:24;;;;;;;2.15;1.88;;;23.40;61.10;;;;;;5001481;28;20394;-75
2021/07/23 12:45:50;;;;;;;3.90;1.45;;;23.40;61.30;;;;;;4983902;28;20097;-74